createdAt,value
2019-02-22T00:00:49.753Z,9.90
2019-02-22T00:01:25.935Z,9.90
2019-02-22T00:02:02.168Z,9.90
2019-02-22T00:02:36.769Z,9.90
2019-02-22T00:03:11.369Z,9.90
2019-02-22T00:03:45.940Z,9.90
2019-02-22T00:04:20.553Z,10.00
2019-02-22T00:04:55.066Z,9.90
2019-02-22T00:05:29.568Z,9.90
2019-02-22T00:06:04.082Z,9.90
2019-02-22T00:06:38.652Z,9.90
2019-02-22T00:07:13.169Z,9.90
2019-02-22T00:07:47.708Z,10.00
2019-02-22T00:08:22.261Z,10.00
2019-02-22T00:08:56.787Z,10.00
2019-02-22T00:09:31.450Z,10.00
2019-02-22T00:10:06.711Z,10.00
2019-02-22T00:10:41.226Z,9.90
2019-02-22T00:11:15.825Z,9.90
2019-02-22T00:11:50.387Z,9.90
2019-02-22T00:12:25.012Z,9.90
2019-02-22T00:12:59.515Z,9.90
2019-02-22T00:13:34.034Z,9.90
2019-02-22T00:14:08.619Z,9.90
2019-02-22T00:14:43.125Z,9.90
2019-02-22T00:15:17.654Z,9.90
2019-02-22T00:15:52.410Z,9.90
2019-02-22T00:16:32.628Z,9.90
2019-02-22T00:17:07.130Z,9.90
2019-02-22T00:17:41.639Z,9.90
2019-02-22T00:18:16.162Z,9.80
2019-02-22T00:18:50.727Z,9.80
2019-02-22T00:19:25.237Z,9.80
2019-02-22T00:19:59.765Z,9.80
2019-02-22T00:20:35.233Z,9.80
2019-02-22T00:21:09.800Z,9.70
2019-02-22T00:21:44.897Z,9.70
2019-02-22T00:22:19.466Z,9.70
2019-02-22T00:22:54.051Z,9.70
2019-02-22T00:23:28.615Z,9.70
2019-02-22T00:24:03.218Z,9.70
2019-02-22T00:24:37.793Z,9.70
2019-02-22T00:25:12.591Z,9.70
2019-02-22T00:25:47.093Z,9.70
2019-02-22T00:26:21.615Z,9.60
2019-02-22T00:26:56.162Z,9.60
2019-02-22T00:27:30.745Z,9.60
2019-02-22T00:28:05.264Z,9.60
2019-02-22T00:28:39.847Z,9.60
2019-02-22T00:29:14.353Z,9.60
2019-02-22T00:29:48.879Z,9.50
2019-02-22T00:30:23.399Z,9.50
2019-02-22T00:30:57.904Z,9.50
2019-02-22T00:31:32.423Z,9.50
2019-02-22T00:32:06.949Z,9.50
2019-02-22T00:32:42.655Z,9.50
2019-02-22T00:33:17.349Z,9.50
2019-02-22T00:33:51.937Z,9.50
2019-02-22T00:34:26.520Z,9.50
2019-02-22T00:35:01.116Z,9.50
2019-02-22T00:35:35.628Z,9.50
2019-02-22T00:36:10.304Z,9.50
2019-02-22T00:36:45.219Z,9.40
2019-02-22T00:37:19.893Z,9.40
2019-02-22T00:37:54.944Z,9.40
2019-02-22T00:38:29.457Z,9.50
2019-02-22T00:39:04.433Z,9.50
2019-02-22T00:39:38.957Z,9.50
2019-02-22T00:40:13.541Z,9.50
2019-02-22T00:40:49.536Z,9.40
2019-02-22T00:41:24.077Z,9.50
2019-02-22T00:41:58.617Z,9.40
2019-02-22T00:42:33.118Z,9.40
2019-02-22T00:43:07.601Z,9.40
2019-02-22T00:43:42.508Z,9.40
2019-02-22T00:44:17.016Z,9.40
2019-02-22T00:44:51.519Z,9.40
2019-02-22T00:45:26.031Z,9.40
2019-02-22T00:46:00.773Z,9.40
2019-02-22T00:46:35.274Z,9.40
2019-02-22T00:47:09.877Z,9.40
2019-02-22T00:47:44.428Z,9.30
2019-02-22T00:48:18.953Z,9.30
2019-02-22T00:48:53.537Z,9.30
2019-02-22T00:49:28.113Z,9.30
2019-02-22T00:50:02.613Z,9.30
2019-02-22T00:50:37.184Z,9.30
2019-02-22T00:51:11.697Z,9.30
2019-02-22T00:51:46.204Z,9.30
2019-02-22T00:52:20.702Z,9.30
2019-02-22T00:52:55.571Z,9.20
2019-02-22T00:53:30.104Z,9.30
2019-02-22T00:54:04.758Z,9.20
2019-02-22T00:54:39.264Z,9.20
2019-02-22T00:55:14.893Z,9.20
2019-02-22T00:55:49.456Z,9.20
2019-02-22T00:56:23.964Z,9.20
2019-02-22T00:56:59.461Z,9.20
2019-02-22T00:57:34.131Z,9.20
2019-02-22T00:58:08.644Z,9.20
2019-02-22T00:58:43.211Z,9.20
2019-02-22T00:59:18.060Z,9.20
2019-02-22T00:59:52.668Z,9.10
2019-02-22T01:00:28.260Z,9.10
2019-02-22T01:01:02.786Z,9.10
2019-02-22T01:01:37.333Z,9.10
2019-02-22T01:02:11.920Z,9.10
2019-02-22T01:02:47.018Z,9.10
2019-02-22T01:03:21.524Z,9.10
2019-02-22T01:03:56.051Z,9.10
2019-02-22T01:04:30.972Z,9.10
2019-02-22T01:05:06.206Z,9.10
2019-02-22T01:05:40.723Z,9.10
2019-02-22T01:06:15.301Z,9.10
2019-02-22T01:06:49.855Z,9.20
2019-02-22T01:07:24.356Z,9.20
2019-02-22T01:07:59.151Z,9.20
2019-02-22T01:08:33.669Z,9.20
2019-02-22T01:09:08.182Z,9.20
2019-02-22T01:09:42.741Z,9.20
2019-02-22T01:10:17.234Z,9.10
2019-02-22T01:10:51.785Z,9.20
2019-02-22T01:11:26.301Z,9.20
2019-02-22T01:12:00.812Z,9.10
2019-02-22T01:12:35.398Z,9.20
2019-02-22T01:13:10.036Z,9.10
2019-02-22T01:13:44.560Z,9.10
2019-02-22T01:14:19.073Z,9.10
2019-02-22T01:14:53.585Z,9.10
2019-02-22T01:15:28.165Z,9.10
2019-02-22T01:16:02.674Z,9.10
2019-02-22T01:16:37.179Z,9.10
2019-02-22T01:17:11.756Z,9.00
2019-02-22T01:17:46.364Z,9.00
2019-02-22T01:18:20.867Z,9.00
2019-02-22T01:18:55.386Z,9.00
2019-02-22T01:19:29.986Z,9.00
2019-02-22T01:20:05.627Z,9.00
2019-02-22T01:20:40.130Z,8.90
2019-02-22T01:21:14.809Z,9.00
2019-02-22T01:21:49.373Z,8.90
2019-02-22T01:22:23.954Z,8.90
2019-02-22T01:22:58.535Z,8.90
2019-02-22T01:23:33.112Z,8.90
2019-02-22T01:24:07.718Z,8.90
2019-02-22T01:24:42.270Z,8.90
2019-02-22T01:25:16.771Z,8.90
2019-02-22T01:25:51.286Z,8.90
2019-02-22T01:26:25.878Z,9.00
2019-02-22T01:27:00.450Z,9.00
2019-02-22T01:27:34.970Z,9.00
2019-02-22T01:28:09.537Z,8.90
2019-02-22T01:28:44.060Z,8.90
2019-02-22T01:29:18.598Z,8.90
2019-02-22T01:29:53.146Z,8.90
2019-02-22T01:30:27.711Z,8.90
2019-02-22T01:31:02.205Z,8.90
2019-02-22T01:31:36.730Z,8.80
2019-02-22T01:32:11.229Z,8.90
2019-02-22T01:32:46.304Z,8.90
2019-02-22T01:33:20.814Z,8.90
2019-02-22T01:33:55.409Z,8.90
2019-02-22T01:34:29.888Z,8.90
2019-02-22T01:35:04.609Z,8.90
2019-02-22T01:35:39.147Z,8.90
2019-02-22T01:36:13.710Z,8.90
2019-02-22T01:36:48.232Z,8.90
2019-02-22T01:37:22.758Z,8.90
2019-02-22T01:37:57.507Z,8.90
2019-02-22T01:38:32.090Z,8.90
2019-02-22T01:39:07.165Z,9.00
2019-02-22T01:39:41.690Z,9.00
2019-02-22T01:40:16.278Z,9.00
2019-02-22T01:40:50.801Z,8.90
2019-02-22T01:41:25.393Z,8.90
2019-02-22T01:41:59.955Z,8.90
2019-02-22T01:42:34.528Z,8.90
2019-02-22T01:43:09.043Z,8.80
2019-02-22T01:43:43.549Z,9.00
2019-02-22T01:44:22.380Z,8.90
2019-02-22T01:44:56.941Z,8.90
2019-02-22T01:45:31.464Z,8.90
2019-02-22T01:46:05.963Z,8.90
2019-02-22T01:46:40.473Z,8.90
2019-02-22T01:47:14.996Z,8.90
2019-02-22T01:47:49.490Z,8.90
2019-02-22T01:48:23.996Z,8.90
2019-02-22T01:48:58.738Z,8.90
2019-02-22T01:49:33.248Z,9.00
2019-02-22T01:50:08.098Z,9.00
2019-02-22T01:50:44.039Z,9.00
2019-02-22T01:51:18.542Z,9.00
2019-02-22T01:51:53.193Z,9.00
2019-02-22T01:52:27.690Z,9.00
2019-02-22T01:53:02.204Z,9.00
2019-02-22T01:53:38.313Z,9.00
2019-02-22T01:54:13.978Z,9.00
2019-02-22T01:54:48.532Z,9.00
2019-02-22T01:55:24.966Z,9.00
2019-02-22T01:55:59.522Z,9.00
2019-02-22T01:56:34.609Z,8.90
2019-02-22T01:57:09.146Z,9.00
2019-02-22T01:57:43.740Z,8.90
2019-02-22T01:58:18.314Z,9.00
2019-02-22T01:58:52.938Z,9.00
2019-02-22T01:59:27.519Z,9.00
2019-02-22T02:00:02.077Z,9.00
2019-02-22T02:00:37.210Z,8.90
2019-02-22T02:01:11.791Z,8.90
2019-02-22T02:01:46.384Z,8.90
2019-02-22T02:02:20.969Z,9.00
2019-02-22T02:02:55.508Z,9.00
2019-02-22T02:03:30.148Z,9.00
2019-02-22T02:04:04.835Z,9.00
2019-02-22T02:04:39.366Z,9.00
2019-02-22T02:05:13.968Z,9.00
2019-02-22T02:05:48.526Z,9.00
2019-02-22T02:06:23.036Z,9.00
2019-02-22T02:06:57.545Z,9.00
2019-02-22T02:07:32.110Z,8.90
2019-02-22T02:08:06.701Z,8.90
2019-02-22T02:08:41.210Z,8.90
2019-02-22T02:09:15.793Z,8.90
2019-02-22T02:09:50.360Z,8.90
2019-02-22T02:10:25.154Z,8.90
2019-02-22T02:10:59.793Z,8.90
2019-02-22T02:11:34.325Z,8.80
2019-02-22T02:12:08.883Z,8.80
2019-02-22T02:12:43.389Z,8.80
2019-02-22T02:13:18.050Z,8.80
2019-02-22T02:13:52.576Z,8.80
2019-02-22T02:14:27.172Z,8.80
2019-02-22T02:15:01.774Z,8.80
2019-02-22T02:15:36.477Z,8.90
2019-02-22T02:16:11.060Z,8.80
2019-02-22T02:16:45.790Z,8.80
2019-02-22T02:17:20.284Z,8.80
2019-02-22T02:17:54.883Z,8.90
2019-02-22T02:18:29.580Z,8.80
2019-02-22T02:19:04.086Z,8.80
2019-02-22T02:19:39.168Z,8.80
2019-02-22T02:20:14.141Z,8.80
2019-02-22T02:20:48.749Z,8.80
2019-02-22T02:21:23.302Z,8.80
2019-02-22T02:21:57.833Z,8.90
2019-02-22T02:22:32.332Z,8.90
2019-02-22T02:23:07.245Z,8.90
2019-02-22T02:23:41.811Z,8.90
2019-02-22T02:24:16.358Z,8.90
2019-02-22T02:24:50.985Z,8.90
2019-02-22T02:25:25.581Z,8.90
2019-02-22T02:26:00.207Z,8.90
2019-02-22T02:26:34.717Z,8.80
2019-02-22T02:27:09.284Z,8.80
2019-02-22T02:27:43.864Z,8.80
2019-02-22T02:28:18.364Z,8.80
2019-02-22T02:28:52.865Z,8.80
2019-02-22T02:29:27.384Z,8.80
2019-02-22T02:30:01.963Z,8.80
2019-02-22T02:30:36.534Z,8.80
2019-02-22T02:31:11.044Z,8.80
2019-02-22T02:31:45.633Z,8.80
2019-02-22T02:32:20.142Z,8.80
2019-02-22T02:32:54.648Z,8.80
2019-02-22T02:33:29.167Z,8.70
2019-02-22T02:34:03.756Z,8.80
2019-02-22T02:34:38.266Z,8.80
2019-02-22T02:35:12.765Z,8.70
2019-02-22T02:35:47.350Z,8.80
2019-02-22T02:36:21.892Z,8.80
2019-02-22T02:36:56.395Z,8.80
2019-02-22T02:37:30.987Z,8.80
2019-02-22T02:38:05.505Z,8.80
2019-02-22T02:38:40.025Z,8.80
2019-02-22T02:39:14.529Z,8.80
2019-02-22T02:39:49.057Z,8.80
2019-02-22T02:40:23.626Z,8.70
2019-02-22T02:41:07.090Z,8.70
2019-02-22T02:41:34.366Z,8.70
2019-02-22T02:42:08.978Z,8.70
2019-02-22T02:42:43.498Z,8.70
2019-02-22T02:43:18.364Z,8.70
2019-02-22T02:43:52.885Z,8.70
2019-02-22T02:44:27.451Z,8.70
2019-02-22T02:45:02.025Z,8.60
2019-02-22T02:45:36.621Z,8.70
2019-02-22T02:46:11.197Z,8.70
2019-02-22T02:46:45.716Z,8.70
2019-02-22T02:47:20.257Z,8.70
2019-02-22T02:47:55.025Z,8.70
2019-02-22T02:48:29.568Z,8.70
2019-02-22T02:49:04.129Z,8.70
2019-02-22T02:49:38.787Z,8.70
2019-02-22T02:50:15.805Z,8.70
2019-02-22T02:50:50.310Z,8.70
2019-02-22T02:51:24.803Z,8.70
2019-02-22T02:51:59.358Z,8.70
2019-02-22T02:52:35.618Z,8.70
2019-02-22T02:53:10.638Z,8.70
2019-02-22T02:53:45.440Z,8.70
2019-02-22T02:54:20.009Z,8.70
2019-02-22T02:54:54.615Z,8.70
2019-02-22T02:55:33.668Z,8.70
2019-02-22T02:56:29.045Z,8.70
2019-02-22T02:57:03.548Z,8.70
2019-02-22T02:57:38.065Z,8.80
2019-02-22T02:58:12.594Z,8.80
2019-02-22T02:58:47.153Z,8.80
2019-02-22T02:59:21.654Z,8.80
2019-02-22T02:59:56.157Z,8.80
2019-02-22T03:00:30.655Z,8.80
2019-02-22T03:01:05.264Z,8.80
2019-02-22T03:01:39.814Z,8.80
2019-02-22T03:02:15.953Z,8.80
2019-02-22T03:02:50.484Z,8.80
2019-02-22T03:03:25.091Z,8.80
2019-02-22T03:03:59.662Z,8.80
2019-02-22T03:04:34.623Z,8.80
2019-02-22T03:05:09.153Z,8.80
2019-02-22T03:06:00.702Z,8.80
2019-02-22T03:06:45.578Z,8.80
2019-02-22T03:07:22.030Z,8.90
2019-02-22T03:07:58.185Z,8.90
2019-02-22T03:08:34.219Z,8.80
2019-02-22T03:09:09.799Z,8.80
2019-02-22T03:09:44.400Z,8.80
2019-02-22T03:10:18.976Z,8.80
2019-02-22T03:10:53.536Z,8.80
2019-02-22T03:11:28.121Z,8.80
2019-02-22T03:12:03.718Z,8.80
2019-02-22T03:12:38.330Z,8.80
2019-02-22T03:13:13.242Z,8.70
2019-02-22T03:13:47.990Z,8.80
2019-02-22T03:14:22.583Z,8.80
2019-02-22T03:14:57.188Z,8.70
2019-02-22T03:15:31.795Z,8.80
2019-02-22T03:16:06.400Z,8.90
2019-02-22T03:16:42.784Z,8.80
2019-02-22T03:17:17.352Z,8.80
2019-02-22T03:17:51.924Z,8.80
2019-02-22T03:18:26.434Z,8.80
2019-02-22T03:19:01.033Z,8.70
2019-02-22T03:19:35.628Z,8.70
2019-02-22T03:20:11.314Z,8.80
2019-02-22T03:20:45.871Z,8.80
2019-02-22T03:21:20.824Z,8.80
2019-02-22T03:21:55.381Z,8.80
2019-02-22T03:22:29.894Z,8.80
2019-02-22T03:23:04.487Z,8.80
2019-02-22T03:23:39.098Z,8.80
2019-02-22T03:24:13.615Z,8.90
2019-02-22T03:24:48.173Z,8.90
2019-02-22T03:25:22.884Z,8.80
2019-02-22T03:25:57.395Z,8.80
2019-02-22T03:26:31.889Z,8.80
2019-02-22T03:27:06.485Z,8.70
2019-02-22T03:27:41.166Z,8.70
2019-02-22T03:28:15.677Z,8.70
2019-02-22T03:28:50.422Z,8.60
2019-02-22T03:29:24.922Z,8.60
2019-02-22T03:29:59.543Z,8.60
2019-02-22T03:30:34.133Z,8.50
2019-02-22T03:31:08.790Z,8.60
2019-02-22T03:31:43.363Z,8.50
2019-02-22T03:32:17.933Z,8.40
2019-02-22T03:32:52.447Z,8.40
2019-02-22T03:33:27.035Z,8.40
2019-02-22T03:34:01.674Z,8.40
2019-02-22T03:34:36.210Z,8.30
2019-02-22T03:35:10.819Z,8.30
2019-02-22T03:35:45.689Z,8.30
2019-02-22T03:36:20.267Z,8.30
2019-02-22T03:36:54.866Z,8.30
2019-02-22T03:37:29.437Z,8.30
2019-02-22T03:38:05.889Z,8.30
2019-02-22T03:38:40.181Z,8.30
2019-02-22T03:39:14.702Z,8.30
2019-02-22T03:39:49.287Z,8.30
2019-02-22T03:40:24.123Z,8.20
2019-02-22T03:40:58.713Z,8.20
2019-02-22T03:41:33.621Z,8.20
2019-02-22T03:42:08.322Z,8.20
2019-02-22T03:42:42.906Z,8.20
2019-02-22T03:43:17.419Z,8.20
2019-02-22T03:43:51.929Z,8.20
2019-02-22T03:44:26.605Z,8.20
2019-02-22T03:45:01.220Z,8.10
2019-02-22T03:45:35.885Z,8.10
2019-02-22T03:46:10.487Z,8.10
2019-02-22T03:46:45.051Z,8.10
2019-02-22T03:47:19.652Z,8.10
2019-02-22T03:47:54.207Z,8.10
2019-02-22T03:48:28.771Z,8.10
2019-02-22T03:49:03.580Z,8.10
2019-02-22T03:49:38.204Z,8.00
2019-02-22T03:50:14.647Z,8.00
2019-02-22T03:50:49.165Z,8.00
2019-02-22T03:51:23.743Z,8.10
2019-02-22T03:51:59.887Z,8.00
2019-02-22T03:52:36.112Z,8.00
2019-02-22T03:53:12.328Z,8.00
2019-02-22T03:53:48.089Z,7.90
2019-02-22T03:54:22.710Z,7.90
2019-02-22T03:54:57.992Z,7.90
2019-02-22T03:55:32.628Z,7.90
2019-02-22T03:56:07.184Z,7.90
2019-02-22T03:56:41.695Z,7.90
2019-02-22T03:57:16.262Z,7.90
2019-02-22T03:57:50.755Z,7.90
2019-02-22T03:58:25.697Z,7.90
2019-02-22T03:59:00.292Z,7.90
2019-02-22T03:59:34.852Z,7.90
2019-02-22T04:00:11.374Z,7.80
2019-02-22T04:00:48.509Z,7.80
2019-02-22T04:01:23.141Z,7.90
2019-02-22T04:01:57.661Z,7.80
2019-02-22T04:02:32.175Z,7.80
2019-02-22T04:03:06.880Z,7.80
2019-02-22T04:03:41.491Z,7.80
2019-02-22T04:04:16.056Z,7.80
2019-02-22T04:04:50.587Z,7.80
2019-02-22T04:05:25.596Z,7.80
2019-02-22T04:06:00.178Z,7.80
2019-02-22T04:06:35.230Z,7.80
2019-02-22T04:07:09.721Z,7.80
2019-02-22T04:07:44.227Z,7.80
2019-02-22T04:08:18.885Z,7.80
2019-02-22T04:08:53.403Z,7.80
2019-02-22T04:09:29.744Z,7.70
2019-02-22T04:10:05.842Z,7.80
2019-02-22T04:10:40.420Z,7.80
2019-02-22T04:11:15.001Z,7.80
2019-02-22T04:11:49.734Z,7.80
2019-02-22T04:12:24.389Z,7.80
2019-02-22T04:12:59.033Z,7.80
2019-02-22T04:13:33.576Z,7.80
2019-02-22T04:14:08.086Z,7.80
2019-02-22T04:15:03.240Z,7.80
2019-02-22T04:15:37.736Z,7.80
2019-02-22T04:16:12.310Z,7.80
2019-02-22T04:16:46.815Z,7.80
2019-02-22T04:17:21.382Z,7.80
2019-02-22T04:17:55.894Z,7.80
2019-02-22T04:18:30.397Z,7.80
2019-02-22T04:19:04.979Z,7.80
2019-02-22T04:19:42.022Z,7.80
2019-02-22T04:20:16.643Z,7.80
2019-02-22T04:20:51.195Z,7.80
2019-02-22T04:21:25.782Z,7.80
2019-02-22T04:22:00.590Z,7.80
2019-02-22T04:22:35.168Z,7.80
2019-02-22T04:23:09.683Z,7.80
2019-02-22T04:23:44.189Z,7.90
2019-02-22T04:24:18.774Z,7.90
2019-02-22T04:24:53.359Z,7.90
2019-02-22T04:25:27.848Z,7.90
2019-02-22T04:26:02.376Z,7.90
2019-02-22T04:26:36.949Z,7.90
2019-02-22T04:27:11.475Z,7.90
2019-02-22T04:27:46.035Z,7.90
2019-02-22T04:28:20.539Z,7.90
2019-02-22T04:28:55.179Z,7.90
2019-02-22T04:29:29.683Z,7.90
2019-02-22T04:30:06.308Z,7.80
2019-02-22T04:30:40.834Z,7.80
2019-02-22T04:31:15.409Z,7.80
2019-02-22T04:31:49.962Z,7.80
2019-02-22T04:32:24.467Z,7.80
2019-02-22T04:32:58.970Z,7.80
2019-02-22T04:33:33.527Z,7.80
2019-02-22T04:34:08.100Z,7.80
2019-02-22T04:34:42.611Z,7.80
2019-02-22T04:35:17.179Z,7.90
2019-02-22T04:35:51.853Z,7.80
2019-02-22T04:36:26.714Z,7.80
2019-02-22T04:37:01.354Z,7.80
2019-02-22T04:37:37.080Z,7.80
2019-02-22T04:38:11.663Z,7.80
2019-02-22T04:38:46.243Z,7.80
2019-02-22T04:39:20.757Z,7.80
2019-02-22T04:39:55.281Z,7.80
2019-02-22T04:40:29.857Z,7.90
2019-02-22T04:41:04.490Z,7.90
2019-02-22T04:41:39.156Z,7.90
2019-02-22T04:42:13.739Z,7.90
2019-02-22T04:42:48.250Z,7.90
2019-02-22T04:43:22.897Z,7.80
2019-02-22T04:43:57.400Z,7.80
2019-02-22T04:44:32.098Z,7.80
2019-02-22T04:45:09.646Z,7.80
2019-02-22T04:45:44.173Z,7.90
2019-02-22T04:46:18.703Z,7.90
2019-02-22T04:46:53.273Z,7.90
2019-02-22T04:47:27.938Z,7.80
2019-02-22T04:48:02.448Z,7.80
2019-02-22T04:48:39.419Z,7.80
2019-02-22T04:49:13.300Z,7.80
2019-02-22T04:49:49.661Z,7.80
2019-02-22T04:50:24.186Z,7.80
2019-02-22T04:50:58.783Z,7.80
2019-02-22T04:51:33.302Z,7.80
2019-02-22T04:52:07.805Z,7.80
2019-02-22T04:52:42.321Z,7.80
2019-02-22T04:53:16.905Z,7.80
2019-02-22T04:53:51.417Z,7.80
2019-02-22T04:54:26.993Z,7.80
2019-02-22T04:55:01.555Z,7.80
2019-02-22T04:55:36.089Z,7.80
2019-02-22T04:56:10.606Z,7.80
2019-02-22T04:56:45.105Z,7.80
2019-02-22T04:57:19.904Z,7.90
2019-02-22T04:57:54.633Z,7.80
2019-02-22T04:58:29.142Z,7.90
2019-02-22T04:59:03.701Z,7.80
2019-02-22T04:59:38.242Z,7.80
2019-02-22T05:00:12.817Z,7.90
2019-02-22T05:00:47.341Z,7.90
2019-02-22T05:01:21.862Z,7.90
2019-02-22T05:01:56.375Z,7.90
2019-02-22T05:02:31.068Z,7.90
2019-02-22T05:03:05.588Z,7.90
2019-02-22T05:03:40.158Z,7.90
2019-02-22T05:04:14.680Z,7.90
2019-02-22T05:04:49.197Z,7.90
2019-02-22T05:05:23.707Z,7.90
2019-02-22T05:05:58.300Z,7.90
2019-02-22T05:06:32.809Z,7.90
2019-02-22T05:07:07.436Z,8.00
2019-02-22T05:07:41.999Z,7.90
2019-02-22T05:08:16.498Z,8.00
2019-02-22T05:08:51.012Z,8.00
2019-02-22T05:09:25.543Z,7.90
2019-02-22T05:10:00.168Z,8.00
2019-02-22T05:10:35.011Z,8.00
2019-02-22T05:11:09.708Z,8.00
2019-02-22T05:11:44.355Z,8.00
2019-02-22T05:12:18.858Z,8.00
2019-02-22T05:12:53.459Z,8.00
2019-02-22T05:13:28.063Z,7.90
2019-02-22T05:14:05.918Z,8.00
2019-02-22T05:14:40.429Z,8.00
2019-02-22T05:15:15.006Z,8.00
2019-02-22T05:15:49.586Z,8.00
2019-02-22T05:16:24.145Z,8.00
2019-02-22T05:16:58.646Z,7.90
2019-02-22T05:17:35.651Z,7.90
2019-02-22T05:18:09.392Z,7.90
2019-02-22T05:18:43.952Z,7.90
2019-02-22T05:19:18.492Z,7.90
2019-02-22T05:19:52.981Z,7.90
2019-02-22T05:20:27.836Z,7.90
2019-02-22T05:21:02.343Z,7.90
2019-02-22T05:21:36.915Z,7.90
2019-02-22T05:22:11.407Z,7.90
2019-02-22T05:22:45.906Z,7.90
2019-02-22T05:23:20.484Z,7.90
2019-02-22T05:23:55.026Z,8.00
2019-02-22T05:24:29.538Z,7.90
2019-02-22T05:25:05.597Z,7.90
2019-02-22T05:25:40.100Z,8.00
2019-02-22T05:26:14.720Z,8.00
2019-02-22T05:26:49.345Z,8.00
2019-02-22T05:27:23.843Z,8.00
2019-02-22T05:27:58.353Z,8.10
2019-02-22T05:28:32.872Z,8.10
2019-02-22T05:29:07.383Z,8.00
2019-02-22T05:29:41.878Z,8.10
2019-02-22T05:30:16.577Z,8.10
2019-02-22T05:30:51.152Z,8.10
2019-02-22T05:31:25.673Z,8.10
2019-02-22T05:32:06.076Z,8.10
2019-02-22T05:32:40.589Z,8.10
2019-02-22T05:33:15.115Z,8.10
2019-02-22T05:33:49.684Z,8.00
2019-02-22T05:34:24.221Z,8.00
2019-02-22T05:34:58.766Z,8.00
2019-02-22T05:35:33.278Z,8.00
2019-02-22T05:36:07.792Z,8.00
2019-02-22T05:36:44.270Z,8.00
2019-02-22T05:37:18.664Z,8.00
2019-02-22T05:37:53.173Z,8.10
2019-02-22T05:38:34.202Z,8.00
2019-02-22T05:39:18.550Z,8.00
2019-02-22T05:39:44.944Z,8.00
2019-02-22T05:40:19.500Z,8.00
2019-02-22T05:40:54.019Z,8.00
2019-02-22T05:41:28.621Z,8.00
2019-02-22T05:42:03.192Z,8.00
2019-02-22T05:42:37.742Z,8.00
2019-02-22T05:43:12.367Z,8.00
2019-02-22T05:43:46.951Z,8.00
2019-02-22T05:44:21.497Z,8.00
2019-02-22T05:44:56.283Z,8.00
2019-02-22T05:45:33.289Z,8.00
2019-02-22T05:46:07.829Z,8.00
2019-02-22T05:46:42.361Z,7.90
2019-02-22T05:47:16.962Z,7.90
2019-02-22T05:47:51.528Z,8.00
2019-02-22T05:48:26.029Z,7.90
2019-02-22T05:49:00.530Z,8.00
2019-02-22T05:49:35.109Z,8.00
2019-02-22T05:50:09.804Z,8.00
2019-02-22T05:50:44.433Z,8.00
2019-02-22T05:51:18.960Z,8.00
2019-02-22T05:51:53.474Z,8.00
2019-02-22T05:52:28.041Z,8.00
2019-02-22T05:53:02.554Z,8.00
2019-02-22T05:53:37.059Z,7.90
2019-02-22T05:54:11.581Z,7.90
2019-02-22T05:54:46.160Z,7.90
2019-02-22T05:55:20.730Z,7.90
2019-02-22T05:55:55.319Z,8.00
2019-02-22T05:56:29.911Z,8.00
2019-02-22T05:57:04.494Z,7.90
2019-02-22T05:57:39.112Z,8.00
2019-02-22T05:58:13.645Z,7.90
2019-02-22T05:58:48.396Z,8.00
2019-02-22T05:59:23.437Z,8.00
2019-02-22T05:59:57.934Z,8.00
2019-02-22T06:00:33.226Z,8.00
2019-02-22T06:01:08.142Z,8.00
2019-02-22T06:01:43.166Z,8.00
2019-02-22T06:02:18.179Z,8.00
2019-02-22T06:02:53.205Z,8.00
2019-02-22T06:03:29.686Z,8.00
2019-02-22T06:04:05.535Z,8.00
2019-02-22T06:04:49.656Z,8.00
2019-02-22T06:05:25.563Z,8.00
2019-02-22T06:06:00.131Z,8.00
2019-02-22T06:06:34.723Z,8.00
2019-02-22T06:07:09.239Z,8.00
2019-02-22T06:07:43.910Z,8.00
2019-02-22T06:08:18.443Z,8.00
2019-02-22T06:08:53.033Z,8.00
2019-02-22T06:09:28.715Z,8.00
2019-02-22T06:10:03.629Z,8.00
2019-02-22T06:10:39.762Z,8.00
2019-02-22T06:11:14.679Z,8.00
2019-02-22T06:11:49.265Z,8.00
2019-02-22T06:12:34.129Z,8.00
2019-02-22T06:13:00.065Z,8.00
2019-02-22T06:13:34.570Z,8.00
2019-02-22T06:14:09.223Z,7.90
2019-02-22T06:14:43.739Z,7.90
2019-02-22T06:15:18.317Z,7.90
2019-02-22T06:15:52.824Z,7.90
2019-02-22T06:16:27.476Z,7.90
2019-02-22T06:17:13.895Z,7.80
2019-02-22T06:17:38.356Z,7.80
2019-02-22T06:18:12.936Z,7.80
2019-02-22T06:18:47.548Z,7.90
2019-02-22T06:19:22.072Z,7.90
2019-02-22T06:19:56.726Z,7.90
2019-02-22T06:20:31.306Z,7.90
2019-02-22T06:21:05.896Z,7.90
2019-02-22T06:21:40.429Z,8.00
2019-02-22T06:22:14.930Z,8.00
2019-02-22T06:22:49.517Z,8.00
2019-02-22T06:23:24.037Z,8.00
2019-02-22T06:23:58.545Z,8.00
2019-02-22T06:24:33.108Z,8.00
2019-02-22T06:25:08.196Z,7.90
2019-02-22T06:25:42.798Z,8.00
2019-02-22T06:26:17.311Z,8.00
2019-02-22T06:26:52.057Z,8.00
2019-02-22T06:27:27.644Z,8.00
2019-02-22T06:28:02.166Z,8.00
2019-02-22T06:28:36.745Z,8.00
2019-02-22T06:29:11.326Z,8.00
2019-02-22T06:29:45.827Z,8.00
2019-02-22T06:30:20.331Z,8.00
2019-02-22T06:30:56.031Z,8.00
2019-02-22T06:31:30.526Z,7.90
2019-02-22T06:32:05.057Z,7.90
2019-02-22T06:32:42.110Z,7.80
2019-02-22T06:33:15.779Z,7.80
2019-02-22T06:33:50.340Z,7.80
2019-02-22T06:34:24.850Z,7.70
2019-02-22T06:34:59.369Z,7.70
2019-02-22T06:35:33.954Z,7.70
2019-02-22T06:36:08.552Z,7.70
2019-02-22T06:36:44.685Z,7.70
2019-02-22T06:37:19.265Z,7.80
2019-02-22T06:37:54.609Z,7.80
2019-02-22T06:38:29.144Z,7.80
2019-02-22T06:39:04.781Z,7.70
2019-02-22T06:39:39.363Z,7.70
2019-02-22T06:40:13.954Z,7.80
2019-02-22T06:40:48.565Z,7.80
2019-02-22T06:41:23.398Z,7.80
2019-02-22T06:41:58.039Z,7.80
2019-02-22T06:42:33.553Z,7.80
2019-02-22T06:43:08.133Z,7.80
2019-02-22T06:43:42.858Z,7.80
2019-02-22T06:44:17.467Z,7.80
2019-02-22T06:44:52.229Z,7.70
2019-02-22T06:45:26.742Z,7.80
2019-02-22T06:46:01.260Z,7.80
2019-02-22T06:46:35.767Z,7.80
2019-02-22T06:47:10.371Z,7.80
2019-02-22T06:47:45.011Z,7.80
2019-02-22T06:48:19.832Z,7.80
2019-02-22T06:48:54.542Z,7.80
2019-02-22T06:49:29.122Z,7.80
2019-02-22T06:50:03.663Z,7.80
2019-02-22T06:50:38.245Z,7.80
2019-02-22T06:51:12.888Z,7.80
2019-02-22T06:51:47.542Z,7.70
2019-02-22T06:52:22.041Z,7.80
2019-02-22T06:52:56.573Z,7.80
2019-02-22T06:53:31.230Z,7.80
2019-02-22T06:54:05.815Z,7.80
2019-02-22T06:54:42.814Z,7.80
2019-02-22T06:55:19.051Z,7.80
2019-02-22T06:55:53.738Z,7.80
2019-02-22T06:56:28.282Z,7.80
2019-02-22T06:57:02.807Z,7.70
2019-02-22T06:57:37.445Z,7.70
2019-02-22T06:58:11.966Z,7.70
2019-02-22T06:58:46.502Z,7.70
2019-02-22T06:59:21.469Z,7.70
2019-02-22T06:59:56.177Z,7.70
2019-02-22T07:00:30.769Z,7.70
2019-02-22T07:01:05.285Z,7.70
2019-02-22T07:01:39.786Z,7.70
2019-02-22T07:02:14.303Z,7.70
2019-02-22T07:02:48.827Z,7.70
2019-02-22T07:03:23.678Z,7.80
2019-02-22T07:03:58.206Z,7.80
2019-02-22T07:04:33.101Z,7.80
2019-02-22T07:05:08.263Z,7.80
2019-02-22T07:05:42.759Z,7.90
2019-02-22T07:06:17.299Z,7.80
2019-02-22T07:06:51.812Z,7.80
2019-02-22T07:07:26.411Z,7.80
2019-02-22T07:08:01.129Z,7.80
2019-02-22T07:08:37.720Z,7.80
2019-02-22T07:09:12.241Z,7.80
2019-02-22T07:09:50.467Z,7.80
2019-02-22T07:10:25.188Z,7.80
2019-02-22T07:11:16.489Z,7.80
2019-02-22T07:11:55.748Z,7.90
2019-02-22T07:12:34.933Z,7.80
2019-02-22T07:13:12.703Z,7.80
2019-02-22T07:13:47.953Z,7.80
2019-02-22T07:14:22.853Z,7.80
2019-02-22T07:14:57.373Z,7.80
2019-02-22T07:15:31.983Z,7.80
2019-02-22T07:16:06.560Z,7.80
2019-02-22T07:16:48.373Z,7.80
2019-02-22T07:17:22.889Z,7.80
2019-02-22T07:17:57.389Z,7.80
2019-02-22T07:18:32.260Z,7.80
2019-02-22T07:19:06.771Z,7.80
2019-02-22T07:19:41.441Z,7.80
2019-02-22T07:20:16.022Z,7.80
2019-02-22T07:20:50.627Z,7.80
2019-02-22T07:21:25.144Z,7.80
2019-02-22T07:21:59.733Z,7.80
2019-02-22T07:22:34.323Z,7.80
2019-02-22T07:23:09.838Z,7.80
2019-02-22T07:23:44.425Z,7.80
2019-02-22T07:24:19.003Z,7.80
2019-02-22T07:24:53.540Z,7.80
2019-02-22T07:25:28.369Z,7.80
2019-02-22T07:26:03.013Z,7.80
2019-02-22T07:26:37.702Z,7.80
2019-02-22T07:27:12.320Z,7.80
2019-02-22T07:27:47.006Z,7.80
2019-02-22T07:28:23.557Z,7.80
2019-02-22T07:28:57.912Z,7.80
2019-02-22T07:29:32.608Z,7.80
2019-02-22T07:30:10.240Z,7.80
2019-02-22T07:30:44.820Z,7.80
2019-02-22T07:31:19.508Z,7.80
2019-02-22T07:32:04.803Z,7.70
2019-02-22T07:32:30.718Z,7.70
2019-02-22T07:33:05.634Z,7.70
2019-02-22T07:33:40.218Z,7.70
2019-02-22T07:34:14.818Z,7.70
2019-02-22T07:34:49.593Z,7.70
2019-02-22T07:35:24.259Z,7.70
2019-02-22T07:35:58.785Z,7.70
2019-02-22T07:36:33.914Z,7.70
2019-02-22T07:37:10.082Z,7.70
2019-02-22T07:37:46.308Z,7.70
2019-02-22T07:38:20.877Z,7.70
2019-02-22T07:39:10.770Z,7.70
2019-02-22T07:39:32.199Z,7.70
2019-02-22T07:40:07.210Z,7.70
2019-02-22T07:40:41.730Z,7.70
2019-02-22T07:41:16.255Z,7.70
2019-02-22T07:41:50.869Z,7.70
2019-02-22T07:42:25.541Z,7.70
2019-02-22T07:43:07.791Z,7.70
2019-02-22T07:43:36.295Z,7.80
2019-02-22T07:44:10.810Z,7.80
2019-02-22T07:44:45.446Z,7.70
2019-02-22T07:45:20.025Z,7.70